BOI weather

Boise Air Terminal/Gowen Field
Boise, Idaho, United States

Public forecast

Using degrees Fahrenheit for public forecast. Weather courtesy of forecast.io.

Current aviation weather report (METAR) for Boise Air Terminal/Gowen Field

Retrieved 2019/11/16 21:53 UTC (48 minutes ago):

KBOI 162153Z 29010KT 10SM CLR 12/M01 A3030 RMK AO2 SLP263 T01221011

Aviation forecast (TAF) for Boise Air Terminal/Gowen Field

Retrieved 2019/11/16 18:33 UTC (4 hours ago):

TAF KBOI 161730Z 1618/1718 30010KT P6SM SKC FM170300 VRB03KT P6SM BKN200 FM171500 VRB03KT P6SM OVC150